createdAt,value
2023-02-28T00:00:40.136Z,13.90
2023-02-28T00:03:18.783Z,14.90
2023-02-28T00:05:48.964Z,14.00
2023-02-28T00:08:24.886Z,14.70
2023-02-28T00:10:52.421Z,13.90
2023-02-28T00:13:19.598Z,13.60
2023-02-28T00:16:10.704Z,14.10
2023-02-28T00:18:37.965Z,13.60
2023-02-28T00:21:08.298Z,13.10
2023-02-28T00:23:36.512Z,14.10
2023-02-28T00:26:04.167Z,13.50
2023-02-28T00:28:31.690Z,12.50
2023-02-28T00:31:19.178Z,13.80
2023-02-28T00:33:56.628Z,12.40
2023-02-28T00:36:24.097Z,12.40
2023-02-28T00:38:51.257Z,14.30
2023-02-28T00:41:18.696Z,14.50
2023-02-28T00:43:48.715Z,15.00
2023-02-28T00:46:15.899Z,13.70
2023-02-28T00:48:43.515Z,13.90
2023-02-28T00:51:31.293Z,13.50
2023-02-28T00:54:19.269Z,13.40
2023-02-28T00:56:55.960Z,11.90
2023-02-28T00:59:36.198Z,12.80
2023-02-28T01:02:07.366Z,11.30
2023-02-28T01:04:45.112Z,11.00
2023-02-28T01:07:12.984Z,10.60
2023-02-28T01:10:00.343Z,10.90
2023-02-28T01:12:47.790Z,11.30
2023-02-28T01:15:16.943Z,11.10
2023-02-28T01:17:45.911Z,10.60
2023-02-28T01:20:33.430Z,11.50
2023-02-28T01:23:20.898Z,10.50
2023-02-28T01:25:51.688Z,10.60
2023-02-28T01:28:39.010Z,11.30
2023-02-28T01:31:10.376Z,11.10
2023-02-28T01:33:50.269Z,11.60
2023-02-28T01:36:28.863Z,13.20
2023-02-28T01:38:59.037Z,14.60
2023-02-28T01:45:00.311Z,13.70
2023-02-28T01:47:36.429Z,13.80
2023-02-28T01:50:27.611Z,13.50
2023-02-28T01:53:19.933Z,13.60
2023-02-28T01:55:51.866Z,12.90
2023-02-28T01:58:40.210Z,12.80
2023-02-28T02:01:07.693Z,13.60
2023-02-28T02:03:58.600Z,13.00
2023-02-28T02:06:35.440Z,12.90
2023-02-28T02:09:04.088Z,12.50
2023-02-28T02:11:47.556Z,12.90
2023-02-28T02:15:01.400Z,14.10
2023-02-28T02:17:55.148Z,13.00
2023-02-28T02:21:16.207Z,12.80
2023-02-28T02:24:38.365Z,11.50
2023-02-28T02:27:41.950Z,12.30
2023-02-28T02:30:50.003Z,11.90
2023-02-28T02:33:40.322Z,11.70
2023-02-28T02:36:16.842Z,10.50
2023-02-28T02:39:01.559Z,11.00
2023-02-28T02:41:47.301Z,11.70
2023-02-28T02:44:42.486Z,12.90
2023-02-28T02:47:13.303Z,12.90
2023-02-28T02:49:43.121Z,14.00
2023-02-28T02:52:36.936Z,13.70
2023-02-28T02:55:26.029Z,13.90
2023-02-28T02:57:57.127Z,14.50
2023-02-28T03:00:28.497Z,15.60
2023-02-28T03:02:57.187Z,14.90
2023-02-28T03:05:32.697Z,15.00
2023-02-28T03:08:19.324Z,15.30
2023-02-28T03:11:10.214Z,15.30
2023-02-28T03:14:17.229Z,15.00
2023-02-28T03:19:55.074Z,15.60
2023-02-28T03:22:53.701Z,16.30
2023-02-28T03:25:29.757Z,16.10
2023-02-28T03:28:04.222Z,17.90
2023-02-28T03:30:58.797Z,16.20
2023-02-28T03:33:29.960Z,16.60
2023-02-28T03:36:13.594Z,15.70
2023-02-28T03:38:44.637Z,14.90
2023-02-28T03:41:38.076Z,15.00
2023-02-28T03:44:18.536Z,14.70
2023-02-28T03:46:51.294Z,15.50
2023-02-28T03:49:44.596Z,15.80
2023-02-28T03:52:25.194Z,15.70
2023-02-28T03:54:57.903Z,17.00
2023-02-28T03:57:34.503Z,17.10
2023-02-28T04:00:10.773Z,17.30
2023-02-28T04:02:53.832Z,18.50
2023-02-28T04:05:26.464Z,17.80
2023-02-28T04:08:13.839Z,17.60
2023-02-28T04:10:41.990Z,18.50
2023-02-28T04:13:09.171Z,18.30
2023-02-28T04:15:43.844Z,18.40
2023-02-28T04:18:13.556Z,19.10
2023-02-28T04:20:40.801Z,18.50
2023-02-28T04:23:10.916Z,19.20
2023-02-28T04:26:01.612Z,18.80
2023-02-28T04:28:47.923Z,19.60
2023-02-28T04:31:23.826Z,20.20
2023-02-28T04:34:11.406Z,20.80
2023-02-28T04:36:59.620Z,21.30
2023-02-28T04:39:37.154Z,21.40
2023-02-28T04:42:07.508Z,21.40
2023-02-28T04:44:55.000Z,21.10
2023-02-28T04:47:31.664Z,19.90
2023-02-28T04:49:59.394Z,20.30
2023-02-28T04:52:31.007Z,19.10
2023-02-28T04:55:10.217Z,20.10
2023-02-28T04:57:38.203Z,21.60
2023-02-28T05:00:17.966Z,22.10
2023-02-28T05:03:05.339Z,20.80
2023-02-28T05:05:33.845Z,21.10
2023-02-28T05:08:03.837Z,21.70
2023-02-28T05:10:30.925Z,22.70
2023-02-28T05:13:07.240Z,23.70
2023-02-28T05:15:55.211Z,21.70
2023-02-28T05:18:43.417Z,18.20
2023-02-28T05:21:30.824Z,18.60
2023-02-28T05:24:14.516Z,22.00
2023-02-28T05:26:43.739Z,23.10
2023-02-28T05:29:16.382Z,22.50
2023-02-28T05:32:03.767Z,23.00
2023-02-28T05:34:34.607Z,20.80
2023-02-28T05:37:01.826Z,20.80
2023-02-28T05:39:49.419Z,20.20
2023-02-28T05:42:35.517Z,22.10
2023-02-28T05:45:04.603Z,22.40
2023-02-28T05:47:35.087Z,22.40
2023-02-28T05:50:05.179Z,22.90
2023-02-28T05:52:40.426Z,21.60
2023-02-28T05:55:27.970Z,21.50
2023-02-28T05:58:06.441Z,22.10
2023-02-28T06:00:41.494Z,22.60
2023-02-28T06:03:19.994Z,23.90
2023-02-28T06:06:05.943Z,21.80
2023-02-28T06:08:36.428Z,21.20
2023-02-28T06:11:06.830Z,22.90
2023-02-28T06:13:44.409Z,23.30
2023-02-28T06:16:33.365Z,22.40
2023-02-28T06:19:04.258Z,23.20
2023-02-28T06:21:32.421Z,22.70
2023-02-28T06:24:20.250Z,21.90
2023-02-28T06:26:52.430Z,22.80
2023-02-28T06:29:19.877Z,22.50
2023-02-28T06:31:47.573Z,22.30
2023-02-28T06:36:54.751Z,22.10
2023-02-28T06:39:22.870Z,21.20
2023-02-28T06:41:55.758Z,20.20
2023-02-28T06:44:23.580Z,18.70
2023-02-28T06:46:51.240Z,19.20
2023-02-28T06:49:27.315Z,19.20
2023-02-28T06:51:54.837Z,18.50
2023-02-28T06:54:21.969Z,18.60
2023-02-28T06:56:50.087Z,18.90
2023-02-28T06:59:17.337Z,18.10
2023-02-28T07:01:44.795Z,16.30
2023-02-28T07:04:12.179Z,15.10
2023-02-28T07:06:39.725Z,15.30
2023-02-28T07:09:07.887Z,14.10
2023-02-28T07:11:35.483Z,13.10
2023-02-28T07:14:02.996Z,12.90
2023-02-28T07:16:30.190Z,12.60
2023-02-28T07:18:57.601Z,10.60
2023-02-28T07:21:25.049Z,10.30
2023-02-28T07:23:52.813Z,10.10
2023-02-28T07:26:22.339Z,9.20
2023-02-28T07:28:50.577Z,8.60
2023-02-28T07:31:19.549Z,7.90
2023-02-28T07:33:46.977Z,7.70
2023-02-28T07:36:16.591Z,6.60
2023-02-28T07:38:46.314Z,6.40
2023-02-28T07:41:15.284Z,7.00
2023-02-28T07:43:42.290Z,6.30
2023-02-28T07:46:11.923Z,5.80
2023-02-28T07:48:39.867Z,5.90
2023-02-28T07:51:07.471Z,6.80
2023-02-28T07:53:34.501Z,7.50
2023-02-28T07:56:02.435Z,7.10
2023-02-28T07:58:31.872Z,6.00
2023-02-28T08:00:59.358Z,5.80
2023-02-28T08:03:27.322Z,5.90
2023-02-28T08:05:55.029Z,5.80
2023-02-28T08:08:22.297Z,5.40
2023-02-28T08:10:49.705Z,5.50
2023-02-28T08:13:16.991Z,5.60
2023-02-28T08:15:47.116Z,5.90
2023-02-28T08:18:14.568Z,6.00
2023-02-28T08:20:41.623Z,6.60
2023-02-28T08:23:08.802Z,7.30
2023-02-28T08:25:36.360Z,6.60
2023-02-28T08:28:03.477Z,6.70
2023-02-28T08:30:30.528Z,7.20
2023-02-28T08:32:57.929Z,6.30
2023-02-28T08:35:25.123Z,7.20
2023-02-28T08:37:52.813Z,6.70
2023-02-28T08:40:20.576Z,7.70
2023-02-28T08:42:48.324Z,6.90
2023-02-28T08:45:16.762Z,7.70
2023-02-28T08:47:44.034Z,7.30
2023-02-28T08:50:13.800Z,6.30
2023-02-28T08:52:41.559Z,6.80
2023-02-28T08:55:11.368Z,6.70
2023-02-28T08:57:38.911Z,6.50
2023-02-28T09:00:08.477Z,7.10
2023-02-28T09:02:35.980Z,7.00
2023-02-28T09:05:04.233Z,7.50
2023-02-28T09:07:31.590Z,7.00
2023-02-28T09:09:59.414Z,7.10
2023-02-28T09:12:27.956Z,7.40
2023-02-28T09:14:56.323Z,7.10
2023-02-28T09:17:24.490Z,7.00
2023-02-28T09:19:58.449Z,7.50
2023-02-28T09:22:26.009Z,7.40
2023-02-28T09:24:53.093Z,7.20
2023-02-28T09:27:20.531Z,7.10
2023-02-28T09:29:47.836Z,6.60
2023-02-28T09:32:15.035Z,6.70
2023-02-28T09:34:42.685Z,6.90
2023-02-28T09:37:09.922Z,6.70
2023-02-28T09:39:37.020Z,6.50
2023-02-28T09:42:06.389Z,7.20
2023-02-28T09:44:37.546Z,7.40
2023-02-28T09:47:13.789Z,7.40
2023-02-28T09:49:47.338Z,6.80
2023-02-28T09:52:20.730Z,6.60
2023-02-28T09:54:48.467Z,6.40
2023-02-28T09:57:26.154Z,6.50
2023-02-28T10:00:05.919Z,6.50
2023-02-28T10:03:04.175Z,7.20
2023-02-28T10:05:35.912Z,6.30
2023-02-28T10:08:09.856Z,7.40
2023-02-28T10:10:42.335Z,7.70
2023-02-28T10:13:18.074Z,7.90
2023-02-28T10:15:47.363Z,8.50
2023-02-28T10:18:18.976Z,7.50
2023-02-28T10:20:47.580Z,7.90
2023-02-28T10:23:19.561Z,8.20
2023-02-28T10:25:52.882Z,7.70
2023-02-28T10:28:21.194Z,8.00
2023-02-28T10:30:50.076Z,8.00
2023-02-28T10:33:25.385Z,7.60
2023-02-28T10:35:53.257Z,7.50
2023-02-28T10:38:23.751Z,7.80
2023-02-28T10:40:51.127Z,7.90
2023-02-28T10:43:25.726Z,9.20
2023-02-28T10:46:16.594Z,8.20
2023-02-28T10:48:46.822Z,8.20
2023-02-28T10:51:15.428Z,8.60
2023-02-28T10:54:01.205Z,9.00
2023-02-28T10:56:31.075Z,8.40
2023-02-28T10:59:01.013Z,8.60
2023-02-28T11:01:44.519Z,8.80
2023-02-28T11:04:41.303Z,8.40
2023-02-28T11:07:22.974Z,9.00
2023-02-28T11:10:02.096Z,9.20
2023-02-28T11:12:33.997Z,9.00
2023-02-28T11:15:27.302Z,8.80
2023-02-28T11:18:01.131Z,9.00
2023-02-28T11:20:31.125Z,9.50
2023-02-28T11:22:59.685Z,8.80
2023-02-28T11:25:29.032Z,9.40
2023-02-28T11:27:58.897Z,8.90
2023-02-28T11:30:34.660Z,9.20
2023-02-28T11:33:02.984Z,8.90
2023-02-28T11:35:37.044Z,9.10
2023-02-28T11:38:07.402Z,9.00
2023-02-28T11:40:43.877Z,9.10
2023-02-28T11:43:29.556Z,9.70
2023-02-28T11:46:15.049Z,9.60
2023-02-28T11:48:54.101Z,10.00
2023-02-28T11:51:29.962Z,10.30
2023-02-28T11:54:16.342Z,10.30
2023-02-28T11:56:54.527Z,9.40
2023-02-28T11:59:44.839Z,9.70
2023-02-28T12:02:26.838Z,9.80
2023-02-28T12:05:04.262Z,9.70
2023-02-28T12:07:41.388Z,9.70
2023-02-28T12:10:21.143Z,9.80
2023-02-28T12:12:59.489Z,10.20
2023-02-28T12:15:46.866Z,10.00
2023-02-28T12:18:34.134Z,9.80
2023-02-28T12:21:22.486Z,10.80
2023-02-28T12:24:27.210Z,10.10
2023-02-28T12:26:56.349Z,10.10
2023-02-28T12:29:29.928Z,9.90
2023-02-28T12:32:02.305Z,10.40
2023-02-28T12:34:37.616Z,11.50
2023-02-28T12:37:27.039Z,10.50
2023-02-28T12:40:12.100Z,10.50
2023-02-28T12:42:45.286Z,11.00
2023-02-28T12:45:21.197Z,10.50
2023-02-28T12:48:04.158Z,10.60
2023-02-28T12:50:39.772Z,10.50
2023-02-28T12:53:12.279Z,10.90
2023-02-28T12:55:44.447Z,10.90
2023-02-28T12:58:23.001Z,10.40
2023-02-28T13:01:08.070Z,10.30
2023-02-28T13:04:01.368Z,10.40
2023-02-28T13:06:52.363Z,11.30
2023-02-28T13:09:20.840Z,11.80
2023-02-28T13:11:53.927Z,10.00
2023-02-28T13:14:28.644Z,10.00
2023-02-28T13:17:03.514Z,9.90
2023-02-28T13:20:01.936Z,10.20
2023-02-28T13:22:46.297Z,10.40
2023-02-28T13:25:50.473Z,10.20
2023-02-28T13:29:09.771Z,10.30
2023-02-28T13:32:07.191Z,9.60
2023-02-28T13:34:34.902Z,10.10
2023-02-28T13:37:32.689Z,10.10
2023-02-28T13:40:37.956Z,10.30
2023-02-28T13:43:06.439Z,9.80
2023-02-28T13:45:39.473Z,10.10
2023-02-28T13:48:28.160Z,9.70
2023-02-28T13:50:55.418Z,10.20
2023-02-28T13:56:37.990Z,10.00
2023-02-28T13:59:18.859Z,10.40
2023-02-28T14:01:57.232Z,10.50
2023-02-28T14:05:02.503Z,10.00
2023-02-28T14:07:36.295Z,10.90
2023-02-28T14:10:09.611Z,9.30
2023-02-28T14:13:05.434Z,9.40
2023-02-28T14:15:52.421Z,9.80
2023-02-28T14:18:27.285Z,9.40
2023-02-28T14:21:26.946Z,9.60
2023-02-28T14:24:44.538Z,10.00
2023-02-28T14:27:30.553Z,10.50
2023-02-28T14:30:45.407Z,9.70
2023-02-28T14:33:29.588Z,10.80
2023-02-28T14:36:08.296Z,11.00
2023-02-28T14:38:39.072Z,9.30
2023-02-28T14:41:36.540Z,10.20
2023-02-28T14:44:21.219Z,9.80
2023-02-28T14:47:18.339Z,10.00
2023-02-28T14:50:07.165Z,10.50
2023-02-28T14:52:57.171Z,10.80
2023-02-28T14:55:36.156Z,10.70
2023-02-28T14:58:07.604Z,10.90
2023-02-28T15:00:38.745Z,10.60
2023-02-28T15:03:23.427Z,10.00
2023-02-28T15:06:19.134Z,11.00
2023-02-28T15:12:04.643Z,10.70
2023-02-28T15:14:48.819Z,10.70
2023-02-28T15:17:26.971Z,11.30
2023-02-28T15:19:56.336Z,11.50
2023-02-28T15:22:30.508Z,11.50
2023-02-28T15:24:58.198Z,11.60
2023-02-28T15:27:29.045Z,11.00
2023-02-28T15:30:18.138Z,10.30
2023-02-28T15:32:45.583Z,10.80
2023-02-28T15:35:35.228Z,11.60
2023-02-28T15:38:15.830Z,11.50
2023-02-28T15:40:58.556Z,11.50
2023-02-28T15:43:46.018Z,12.30
2023-02-28T15:46:33.798Z,11.70
2023-02-28T15:49:24.870Z,12.60
2023-02-28T15:52:06.047Z,13.10
2023-02-28T15:54:53.950Z,13.40
2023-02-28T15:57:33.460Z,13.70
2023-02-28T16:00:24.286Z,14.80
2023-02-28T16:03:27.273Z,14.50
2023-02-28T16:06:34.172Z,13.40
2023-02-28T16:09:01.868Z,14.00
2023-02-28T16:11:50.912Z,14.20
2023-02-28T16:14:32.040Z,14.70
2023-02-28T16:17:10.241Z,14.40
2023-02-28T16:19:57.759Z,13.70
2023-02-28T16:22:46.636Z,15.50
2023-02-28T16:25:38.482Z,15.60
2023-02-28T16:28:32.438Z,17.20
2023-02-28T16:31:20.956Z,15.90
2023-02-28T16:34:01.123Z,16.70
2023-02-28T16:36:50.883Z,18.00
2023-02-28T16:39:18.625Z,17.70
2023-02-28T16:41:58.960Z,17.50
2023-02-28T16:44:46.692Z,18.30
2023-02-28T16:47:34.743Z,18.10
2023-02-28T16:50:20.168Z,18.40
2023-02-28T16:52:47.830Z,17.90
2023-02-28T16:55:15.338Z,17.90
2023-02-28T16:57:55.911Z,18.60
2023-02-28T17:00:24.424Z,19.20
2023-02-28T17:02:51.956Z,20.20
2023-02-28T17:05:42.095Z,20.10
2023-02-28T17:08:23.074Z,20.70
2023-02-28T17:10:50.418Z,19.40
2023-02-28T17:13:28.324Z,20.50
2023-02-28T17:16:06.675Z,22.20
2023-02-28T17:18:44.443Z,23.00
2023-02-28T17:21:31.076Z,22.40
2023-02-28T17:24:28.931Z,23.50
2023-02-28T17:27:21.833Z,24.30
2023-02-28T17:30:18.897Z,23.60
2023-02-28T17:33:06.457Z,23.40
2023-02-28T17:35:44.670Z,24.50
2023-02-28T17:38:32.500Z,24.30
2023-02-28T17:41:10.952Z,22.10
2023-02-28T17:43:58.572Z,22.40
2023-02-28T17:46:47.365Z,21.00
2023-02-28T17:49:15.013Z,21.90
2023-02-28T17:52:02.860Z,22.20
2023-02-28T17:54:50.146Z,20.90
2023-02-28T17:57:38.196Z,19.50
2023-02-28T18:00:23.472Z,20.00
2023-02-28T18:03:12.122Z,21.20
2023-02-28T18:05:59.549Z,19.60
2023-02-28T18:08:47.615Z,19.50
2023-02-28T18:11:44.867Z,20.50
2023-02-28T18:14:32.420Z,23.20
2023-02-28T18:17:01.962Z,22.50
2023-02-28T18:19:50.039Z,21.10
2023-02-28T18:22:38.066Z,22.40
2023-02-28T18:25:26.325Z,23.50
2023-02-28T18:28:05.912Z,21.90
2023-02-28T18:30:53.393Z,20.90
2023-02-28T18:33:34.465Z,21.90
2023-02-28T18:36:02.022Z,23.40
2023-02-28T18:38:40.857Z,25.20
2023-02-28T18:41:29.344Z,22.30
2023-02-28T18:44:13.761Z,23.90
2023-02-28T18:47:01.616Z,25.20
2023-02-28T18:49:49.084Z,24.00
2023-02-28T18:52:38.430Z,23.50
2023-02-28T18:55:24.557Z,25.10
2023-02-28T18:58:13.045Z,24.60
2023-02-28T19:01:00.527Z,26.10
2023-02-28T19:03:49.735Z,26.60
2023-02-28T19:06:17.984Z,24.40
2023-02-28T19:09:06.849Z,25.40
2023-02-28T19:11:54.363Z,26.10
2023-02-28T19:14:32.391Z,25.50
2023-02-28T19:17:20.358Z,26.50
2023-02-28T19:19:51.113Z,26.70
2023-02-28T19:22:21.851Z,27.60
2023-02-28T19:25:11.142Z,28.10
2023-02-28T19:27:57.774Z,29.20
2023-02-28T19:30:35.773Z,29.70
2023-02-28T19:33:23.393Z,30.50
2023-02-28T19:36:04.310Z,34.40
2023-02-28T19:38:34.513Z,34.10
2023-02-28T19:41:22.561Z,33.90
2023-02-28T19:44:09.979Z,31.40
2023-02-28T19:46:57.772Z,35.10
2023-02-28T19:49:38.236Z,34.30
2023-02-28T19:52:13.245Z,33.30
2023-02-28T19:55:03.184Z,34.70
2023-02-28T19:57:39.403Z,35.10
2023-02-28T20:00:08.502Z,34.60
2023-02-28T20:02:56.295Z,35.60
2023-02-28T20:05:43.704Z,33.90
2023-02-28T20:08:14.106Z,32.90
2023-02-28T20:11:06.610Z,34.80
2023-02-28T20:13:43.609Z,32.90
2023-02-28T20:16:15.637Z,33.50
2023-02-28T20:19:03.756Z,37.90
2023-02-28T20:21:41.308Z,37.40
2023-02-28T20:24:18.818Z,37.30
2023-02-28T20:27:06.489Z,39.40
2023-02-28T20:29:38.611Z,38.90
2023-02-28T20:32:27.062Z,37.80
2023-02-28T20:35:14.535Z,38.30
2023-02-28T20:38:02.065Z,32.50
2023-02-28T20:40:49.862Z,32.00
2023-02-28T20:43:27.445Z,34.90
2023-02-28T20:46:07.184Z,34.80
2023-02-28T20:48:49.892Z,33.50
2023-02-28T20:51:40.506Z,34.80
2023-02-28T20:54:20.855Z,37.40
2023-02-28T20:57:08.661Z,39.40
2023-02-28T20:59:56.080Z,39.20
2023-02-28T21:02:35.606Z,39.40
2023-02-28T21:05:14.610Z,40.90
2023-02-28T21:08:02.624Z,42.30
2023-02-28T21:10:50.005Z,41.60
2023-02-28T21:13:17.839Z,42.90
2023-02-28T21:15:48.053Z,41.10
2023-02-28T21:18:15.802Z,41.40
2023-02-28T21:21:01.456Z,45.00
2023-02-28T21:23:49.522Z,46.10
2023-02-28T21:26:35.483Z,46.60
2023-02-28T21:29:22.974Z,46.50
2023-02-28T21:32:02.347Z,46.00
2023-02-28T21:34:32.124Z,47.10
2023-02-28T21:37:20.640Z,46.10
2023-02-28T21:40:01.989Z,49.50
2023-02-28T21:42:40.476Z,49.40
2023-02-28T21:45:29.382Z,49.10
2023-02-28T21:48:00.101Z,51.50
2023-02-28T21:50:27.575Z,51.10
2023-02-28T21:52:55.413Z,50.60
2023-02-28T21:55:38.268Z,51.10
2023-02-28T21:58:26.598Z,52.00
2023-02-28T22:01:16.236Z,53.50
2023-02-28T22:04:05.228Z,54.10
2023-02-28T22:06:35.745Z,54.40
2023-02-28T22:09:10.954Z,53.00
2023-02-28T22:11:51.890Z,53.40
2023-02-28T22:14:19.036Z,54.40
2023-02-28T22:16:55.107Z,54.70
2023-02-28T22:19:28.394Z,56.70
2023-02-28T22:22:16.787Z,54.30
2023-02-28T22:25:04.339Z,53.20
2023-02-28T22:27:51.721Z,53.50
2023-02-28T22:30:40.706Z,51.90
2023-02-28T22:33:29.243Z,50.30
2023-02-28T22:36:18.980Z,51.60
2023-02-28T22:39:07.277Z,48.80
2023-02-28T22:41:57.362Z,48.10
2023-02-28T22:44:46.843Z,48.40
2023-02-28T22:47:28.982Z,49.70
2023-02-28T22:50:07.261Z,48.30
2023-02-28T22:52:55.005Z,48.50
2023-02-28T22:55:42.275Z,48.30
2023-02-28T22:58:30.329Z,47.60
2023-02-28T23:01:13.737Z,47.70
2023-02-28T23:03:56.805Z,48.60
2023-02-28T23:06:45.885Z,51.80
2023-02-28T23:09:33.339Z,52.50
2023-02-28T23:12:20.813Z,51.20
2023-02-28T23:14:50.988Z,52.00
2023-02-28T23:17:38.344Z,49.50
2023-02-28T23:20:26.211Z,49.80
2023-02-28T23:23:13.827Z,51.40
2023-02-28T23:26:01.379Z,48.50
2023-02-28T23:28:39.672Z,49.60
2023-02-28T23:31:27.429Z,50.10
2023-02-28T23:34:00.714Z,47.90
2023-02-28T23:36:48.260Z,49.30
2023-02-28T23:39:31.280Z,49.40
2023-02-28T23:42:08.850Z,49.30
2023-02-28T23:44:56.182Z,50.60
2023-02-28T23:47:27.454Z,49.30
2023-02-28T23:49:58.010Z,50.40
2023-02-28T23:52:25.395Z,50.50
2023-02-28T23:55:13.928Z,51.90
2023-02-28T23:57:53.202Z,52.60
